sensor_id;sensor_type;location;lat;lon;timestamp;P1;durP1;ratioP1;P2;durP2;ratioP2
17347;SDS011;8791;50.876;4.342;2023-04-03T00:00:08;7.97;;;4.93;;
17347;SDS011;8791;50.876;4.342;2023-04-03T00:02:36;7.97;;;4.47;;
17347;SDS011;8791;50.876;4.342;2023-04-03T00:05:03;4.70;;;4.20;;
17347;SDS011;8791;50.876;4.342;2023-04-03T00:07:30;9.30;;;5.17;;
17347;SDS011;8791;50.876;4.342;2023-04-03T00:09:57;10.67;;;4.83;;
17347;SDS011;8791;50.876;4.342;2023-04-03T00:12:25;6.20;;;4.40;;
17347;SDS011;8791;50.876;4.342;2023-04-03T00:14:52;6.77;;;4.93;;
17347;SDS011;8791;50.876;4.342;2023-04-03T00:17:19;7.40;;;4.90;;
17347;SDS011;8791;50.876;4.342;2023-04-03T00:19:45;8.77;;;4.83;;
17347;SDS011;8791;50.876;4.342;2023-04-03T00:22:12;8.50;;;5.43;;
17347;SDS011;8791;50.876;4.342;2023-04-03T00:24:39;11.60;;;4.43;;
17347;SDS011;8791;50.876;4.342;2023-04-03T00:27:06;7.80;;;4.83;;
17347;SDS011;8791;50.876;4.342;2023-04-03T00:29:34;5.33;;;4.57;;
17347;SDS011;8791;50.876;4.342;2023-04-03T00:32:01;5.83;;;4.63;;
17347;SDS011;8791;50.876;4.342;2023-04-03T00:34:27;9.07;;;4.63;;
17347;SDS011;8791;50.876;4.342;2023-04-03T00:36:54;9.10;;;4.53;;
17347;SDS011;8791;50.876;4.342;2023-04-03T00:39:21;6.77;;;5.03;;
17347;SDS011;8791;50.876;4.342;2023-04-03T00:41:48;9.27;;;4.93;;
17347;SDS011;8791;50.876;4.342;2023-04-03T00:44:21;8.43;;;4.53;;
17347;SDS011;8791;50.876;4.342;2023-04-03T00:47:11;8.97;;;4.50;;
17347;SDS011;8791;50.876;4.342;2023-04-03T00:49:39;6.27;;;5.43;;
17347;SDS011;8791;50.876;4.342;2023-04-03T00:52:07;5.57;;;4.70;;
17347;SDS011;8791;50.876;4.342;2023-04-03T00:54:37;7.43;;;4.83;;
17347;SDS011;8791;50.876;4.342;2023-04-03T00:57:07;7.37;;;4.87;;
17347;SDS011;8791;50.876;4.342;2023-04-03T00:59:35;9.13;;;5.10;;
17347;SDS011;8791;50.876;4.342;2023-04-03T01:02:06;5.90;;;4.70;;
17347;SDS011;8791;50.876;4.342;2023-04-03T01:04:35;8.87;;;4.83;;
17347;SDS011;8791;50.876;4.342;2023-04-03T01:07:05;6.47;;;5.30;;
17347;SDS011;8791;50.876;4.342;2023-04-03T01:09:35;11.53;;;5.07;;
17347;SDS011;8791;50.876;4.342;2023-04-03T01:12:15;7.43;;;4.87;;
17347;SDS011;8791;50.876;4.342;2023-04-03T01:14:42;7.93;;;5.13;;
17347;SDS011;8791;50.876;4.342;2023-04-03T01:20:18;8.67;;;5.53;;
17347;SDS011;8791;50.876;4.342;2023-04-03T01:23:10;6.03;;;5.20;;
17347;SDS011;8791;50.876;4.342;2023-04-03T01:25:44;7.60;;;4.87;;
17347;SDS011;8791;50.876;4.342;2023-04-03T01:28:13;6.77;;;4.57;;
17347;SDS011;8791;50.876;4.342;2023-04-03T01:30:43;5.50;;;4.40;;
17347;SDS011;8791;50.876;4.342;2023-04-03T01:33:16;6.77;;;5.03;;
17347;SDS011;8791;50.876;4.342;2023-04-03T01:35:43;7.73;;;5.00;;
17347;SDS011;8791;50.876;4.342;2023-04-03T01:38:10;6.97;;;4.33;;
17347;SDS011;8791;50.876;4.342;2023-04-03T01:40:37;10.47;;;5.20;;
17347;SDS011;8791;50.876;4.342;2023-04-03T01:43:03;7.97;;;5.27;;
17347;SDS011;8791;50.876;4.342;2023-04-03T01:45:30;6.13;;;4.47;;
17347;SDS011;8791;50.876;4.342;2023-04-03T01:47:57;11.33;;;5.27;;
17347;SDS011;8791;50.876;4.342;2023-04-03T01:50:25;6.77;;;4.70;;
17347;SDS011;8791;50.876;4.342;2023-04-03T01:52:52;5.63;;;5.00;;
17347;SDS011;8791;50.876;4.342;2023-04-03T01:55:19;5.63;;;4.50;;
17347;SDS011;8791;50.876;4.342;2023-04-03T01:57:46;9.80;;;5.20;;
17347;SDS011;8791;50.876;4.342;2023-04-03T02:00:13;5.60;;;5.00;;
17347;SDS011;8791;50.876;4.342;2023-04-03T02:02:40;6.90;;;4.80;;
17347;SDS011;8791;50.876;4.342;2023-04-03T02:05:07;5.87;;;4.53;;
17347;SDS011;8791;50.876;4.342;2023-04-03T02:07:36;5.73;;;5.10;;
17347;SDS011;8791;50.876;4.342;2023-04-03T02:10:03;8.63;;;4.97;;
17347;SDS011;8791;50.876;4.342;2023-04-03T02:12:30;7.40;;;5.10;;
17347;SDS011;8791;50.876;4.342;2023-04-03T02:14:57;11.87;;;5.27;;
17347;SDS011;8791;50.876;4.342;2023-04-03T02:17:24;10.70;;;5.47;;
17347;SDS011;8791;50.876;4.342;2023-04-03T02:19:50;7.37;;;5.43;;
17347;SDS011;8791;50.876;4.342;2023-04-03T02:22:17;8.23;;;5.50;;
17347;SDS011;8791;50.876;4.342;2023-04-03T02:24:46;8.87;;;5.67;;
17347;SDS011;8791;50.876;4.342;2023-04-03T02:27:13;7.37;;;5.33;;
17347;SDS011;8791;50.876;4.342;2023-04-03T02:29:40;9.63;;;5.80;;
17347;SDS011;8791;50.876;4.342;2023-04-03T02:32:07;11.33;;;4.93;;
17347;SDS011;8791;50.876;4.342;2023-04-03T02:34:34;9.97;;;5.50;;
17347;SDS011;8791;50.876;4.342;2023-04-03T02:37:01;8.33;;;5.93;;
17347;SDS011;8791;50.876;4.342;2023-04-03T02:39:28;12.20;;;5.60;;
17347;SDS011;8791;50.876;4.342;2023-04-03T02:41:56;8.40;;;5.37;;
17347;SDS011;8791;50.876;4.342;2023-04-03T02:44:22;8.20;;;5.40;;
17347;SDS011;8791;50.876;4.342;2023-04-03T02:46:49;8.00;;;5.10;;
17347;SDS011;8791;50.876;4.342;2023-04-03T02:49:16;5.67;;;5.10;;
17347;SDS011;8791;50.876;4.342;2023-04-03T02:51:43;7.67;;;5.07;;
17347;SDS011;8791;50.876;4.342;2023-04-03T02:54:10;13.20;;;5.60;;
17347;SDS011;8791;50.876;4.342;2023-04-03T02:56:37;9.13;;;5.57;;
17347;SDS011;8791;50.876;4.342;2023-04-03T02:59:05;9.03;;;6.07;;
17347;SDS011;8791;50.876;4.342;2023-04-03T03:01:32;10.57;;;5.20;;
17347;SDS011;8791;50.876;4.342;2023-04-03T03:03:59;7.20;;;5.50;;
17347;SDS011;8791;50.876;4.342;2023-04-03T03:06:26;12.33;;;6.17;;
17347;SDS011;8791;50.876;4.342;2023-04-03T03:08:53;10.47;;;6.00;;
17347;SDS011;8791;50.876;4.342;2023-04-03T03:11:19;13.03;;;6.10;;
17347;SDS011;8791;50.876;4.342;2023-04-03T03:13:46;8.53;;;5.93;;
17347;SDS011;8791;50.876;4.342;2023-04-03T03:16:15;10.90;;;6.40;;
17347;SDS011;8791;50.876;4.342;2023-04-03T03:18:41;9.37;;;6.40;;
17347;SDS011;8791;50.876;4.342;2023-04-03T03:21:08;11.00;;;6.33;;
17347;SDS011;8791;50.876;4.342;2023-04-03T03:23:36;9.63;;;6.00;;
17347;SDS011;8791;50.876;4.342;2023-04-03T03:26:03;12.33;;;6.23;;
17347;SDS011;8791;50.876;4.342;2023-04-03T03:28:31;8.10;;;6.03;;
17347;SDS011;8791;50.876;4.342;2023-04-03T03:30:58;12.13;;;6.60;;
17347;SDS011;8791;50.876;4.342;2023-04-03T03:33:27;10.67;;;6.83;;
17347;SDS011;8791;50.876;4.342;2023-04-03T03:35:54;11.80;;;6.67;;
17347;SDS011;8791;50.876;4.342;2023-04-03T03:38:22;7.83;;;6.40;;
17347;SDS011;8791;50.876;4.342;2023-04-03T03:40:49;7.57;;;6.13;;
17347;SDS011;8791;50.876;4.342;2023-04-03T03:43:16;9.73;;;6.27;;
17347;SDS011;8791;50.876;4.342;2023-04-03T03:45:43;12.17;;;7.27;;
17347;SDS011;8791;50.876;4.342;2023-04-03T03:48:11;9.90;;;6.60;;
17347;SDS011;8791;50.876;4.342;2023-04-03T03:50:39;9.33;;;6.93;;
17347;SDS011;8791;50.876;4.342;2023-04-03T03:53:06;9.83;;;6.37;;
17347;SDS011;8791;50.876;4.342;2023-04-03T03:55:32;10.07;;;6.07;;
17347;SDS011;8791;50.876;4.342;2023-04-03T03:57:59;17.17;;;6.80;;
17347;SDS011;8791;50.876;4.342;2023-04-03T04:00:27;9.20;;;6.03;;
17347;SDS011;8791;50.876;4.342;2023-04-03T04:02:54;8.43;;;6.67;;
17347;SDS011;8791;50.876;4.342;2023-04-03T04:05:21;8.60;;;6.57;;
17347;SDS011;8791;50.876;4.342;2023-04-03T04:07:50;12.80;;;6.50;;
17347;SDS011;8791;50.876;4.342;2023-04-03T04:10:17;15.23;;;6.83;;
17347;SDS011;8791;50.876;4.342;2023-04-03T04:12:43;8.20;;;6.03;;
17347;SDS011;8791;50.876;4.342;2023-04-03T04:15:10;10.10;;;6.10;;
17347;SDS011;8791;50.876;4.342;2023-04-03T04:17:37;10.67;;;6.63;;
17347;SDS011;8791;50.876;4.342;2023-04-03T04:20:04;7.90;;;6.87;;
17347;SDS011;8791;50.876;4.342;2023-04-03T04:22:31;11.00;;;6.03;;
17347;SDS011;8791;50.876;4.342;2023-04-03T04:24:59;11.87;;;6.70;;
17347;SDS011;8791;50.876;4.342;2023-04-03T04:27:26;9.67;;;6.03;;
17347;SDS011;8791;50.876;4.342;2023-04-03T04:29:53;11.53;;;6.70;;
17347;SDS011;8791;50.876;4.342;2023-04-03T04:32:20;11.03;;;6.90;;
17347;SDS011;8791;50.876;4.342;2023-04-03T04:34:47;13.83;;;7.20;;
17347;SDS011;8791;50.876;4.342;2023-04-03T04:37:13;9.87;;;7.10;;
17347;SDS011;8791;50.876;4.342;2023-04-03T04:39:40;8.73;;;6.20;;
17347;SDS011;8791;50.876;4.342;2023-04-03T04:42:08;10.03;;;6.30;;
17347;SDS011;8791;50.876;4.342;2023-04-03T04:44:37;10.90;;;7.40;;
17347;SDS011;8791;50.876;4.342;2023-04-03T04:47:04;8.53;;;6.50;;
17347;SDS011;8791;50.876;4.342;2023-04-03T04:49:31;7.63;;;6.50;;
17347;SDS011;8791;50.876;4.342;2023-04-03T04:51:58;12.97;;;7.90;;
17347;SDS011;8791;50.876;4.342;2023-04-03T04:54:25;12.63;;;7.27;;
17347;SDS011;8791;50.876;4.342;2023-04-03T04:56:52;16.50;;;7.60;;
17347;SDS011;8791;50.876;4.342;2023-04-03T04:59:20;12.97;;;7.80;;
17347;SDS011;8791;50.876;4.342;2023-04-03T05:01:47;11.57;;;7.70;;
17347;SDS011;8791;50.876;4.342;2023-04-03T05:04:13;13.57;;;7.33;;
17347;SDS011;8791;50.876;4.342;2023-04-03T05:06:40;12.13;;;7.60;;
17347;SDS011;8791;50.876;4.342;2023-04-03T05:09:07;14.43;;;7.30;;
17347;SDS011;8791;50.876;4.342;2023-04-03T05:11:34;13.10;;;7.60;;
17347;SDS011;8791;50.876;4.342;2023-04-03T05:14:01;12.67;;;8.10;;
17347;SDS011;8791;50.876;4.342;2023-04-03T05:16:31;14.40;;;8.27;;
17347;SDS011;8791;50.876;4.342;2023-04-03T05:19:00;15.03;;;8.70;;
17347;SDS011;8791;50.876;4.342;2023-04-03T05:21:27;8.97;;;7.63;;
17347;SDS011;8791;50.876;4.342;2023-04-03T05:23:56;10.07;;;7.90;;
17347;SDS011;8791;50.876;4.342;2023-04-03T05:26:24;15.50;;;8.23;;
17347;SDS011;8791;50.876;4.342;2023-04-03T05:28:51;13.63;;;8.40;;
17347;SDS011;8791;50.876;4.342;2023-04-03T05:31:18;9.30;;;7.27;;
17347;SDS011;8791;50.876;4.342;2023-04-03T05:33:46;16.47;;;9.07;;
17347;SDS011;8791;50.876;4.342;2023-04-03T05:36:13;15.70;;;8.97;;
17347;SDS011;8791;50.876;4.342;2023-04-03T05:38:40;13.37;;;8.13;;
17347;SDS011;8791;50.876;4.342;2023-04-03T05:41:07;12.73;;;7.77;;
17347;SDS011;8791;50.876;4.342;2023-04-03T05:43:34;11.97;;;8.27;;
17347;SDS011;8791;50.876;4.342;2023-04-03T05:46:02;13.20;;;8.97;;
17347;SDS011;8791;50.876;4.342;2023-04-03T05:48:30;12.97;;;8.43;;
17347;SDS011;8791;50.876;4.342;2023-04-03T05:50:58;9.87;;;8.70;;
17347;SDS011;8791;50.876;4.342;2023-04-03T05:53:26;15.10;;;9.07;;
17347;SDS011;8791;50.876;4.342;2023-04-03T05:55:55;13.23;;;8.73;;
17347;SDS011;8791;50.876;4.342;2023-04-03T05:58:22;10.43;;;8.50;;
17347;SDS011;8791;50.876;4.342;2023-04-03T06:00:49;10.10;;;8.57;;
17347;SDS011;8791;50.876;4.342;2023-04-03T06:03:15;13.00;;;8.37;;
17347;SDS011;8791;50.876;4.342;2023-04-03T06:05:42;13.60;;;8.00;;
17347;SDS011;8791;50.876;4.342;2023-04-03T06:08:12;14.83;;;8.90;;
17347;SDS011;8791;50.876;4.342;2023-04-03T06:10:39;13.53;;;8.30;;
17347;SDS011;8791;50.876;4.342;2023-04-03T06:13:06;18.83;;;9.37;;
17347;SDS011;8791;50.876;4.342;2023-04-03T06:15:33;14.97;;;8.90;;
17347;SDS011;8791;50.876;4.342;2023-04-03T06:18:00;12.73;;;9.33;;
17347;SDS011;8791;50.876;4.342;2023-04-03T06:20:27;17.50;;;9.23;;
17347;SDS011;8791;50.876;4.342;2023-04-03T06:22:54;12.00;;;8.67;;
17347;SDS011;8791;50.876;4.342;2023-04-03T06:25:22;14.67;;;9.80;;
17347;SDS011;8791;50.876;4.342;2023-04-03T06:27:49;10.00;;;8.87;;
17347;SDS011;8791;50.876;4.342;2023-04-03T06:30:16;13.33;;;8.40;;
17347;SDS011;8791;50.876;4.342;2023-04-03T06:32:43;13.87;;;9.20;;
17347;SDS011;8791;50.876;4.342;2023-04-03T06:35:10;10.30;;;8.50;;
17347;SDS011;8791;50.876;4.342;2023-04-03T06:37:36;12.43;;;8.37;;
17347;SDS011;8791;50.876;4.342;2023-04-03T06:40:04;12.23;;;8.33;;
17347;SDS011;8791;50.876;4.342;2023-04-03T06:42:33;17.20;;;9.07;;
17347;SDS011;8791;50.876;4.342;2023-04-03T06:45:00;9.50;;;8.50;;
17347;SDS011;8791;50.876;4.342;2023-04-03T06:47:26;13.80;;;9.20;;
17347;SDS011;8791;50.876;4.342;2023-04-03T06:49:53;13.07;;;8.73;;
17347;SDS011;8791;50.876;4.342;2023-04-03T06:52:21;18.30;;;8.57;;
17347;SDS011;8791;50.876;4.342;2023-04-03T06:54:48;13.97;;;8.87;;
17347;SDS011;8791;50.876;4.342;2023-04-03T06:57:16;11.53;;;8.23;;
17347;SDS011;8791;50.876;4.342;2023-04-03T06:59:45;13.63;;;8.53;;
17347;SDS011;8791;50.876;4.342;2023-04-03T07:02:12;12.20;;;8.43;;
17347;SDS011;8791;50.876;4.342;2023-04-03T07:04:38;11.67;;;8.13;;
17347;SDS011;8791;50.876;4.342;2023-04-03T07:07:05;11.23;;;8.33;;
17347;SDS011;8791;50.876;4.342;2023-04-03T07:09:32;31.80;;;13.33;;
17347;SDS011;8791;50.876;4.342;2023-04-03T07:11:59;11.53;;;8.30;;
17347;SDS011;8791;50.876;4.342;2023-04-03T07:14:26;15.87;;;8.40;;
17347;SDS011;8791;50.876;4.342;2023-04-03T07:16:54;10.67;;;8.23;;
17347;SDS011;8791;50.876;4.342;2023-04-03T07:19:21;11.23;;;7.90;;
17347;SDS011;8791;50.876;4.342;2023-04-03T07:21:49;11.70;;;8.37;;
17347;SDS011;8791;50.876;4.342;2023-04-03T07:24:16;16.03;;;9.03;;
17347;SDS011;8791;50.876;4.342;2023-04-03T07:26:43;14.07;;;8.07;;
17347;SDS011;8791;50.876;4.342;2023-04-03T07:29:10;12.83;;;8.37;;
17347;SDS011;8791;50.876;4.342;2023-04-03T07:31:38;14.07;;;8.40;;
17347;SDS011;8791;50.876;4.342;2023-04-03T07:34:07;13.00;;;8.20;;
17347;SDS011;8791;50.876;4.342;2023-04-03T07:36:35;17.87;;;8.30;;
17347;SDS011;8791;50.876;4.342;2023-04-03T07:39:02;14.73;;;8.07;;
17347;SDS011;8791;50.876;4.342;2023-04-03T07:41:29;13.57;;;7.30;;
17347;SDS011;8791;50.876;4.342;2023-04-03T07:43:56;11.83;;;8.33;;
17347;SDS011;8791;50.876;4.342;2023-04-03T07:46:23;11.40;;;7.73;;
17347;SDS011;8791;50.876;4.342;2023-04-03T07:48:51;15.53;;;8.50;;
17347;SDS011;8791;50.876;4.342;2023-04-03T07:51:19;12.60;;;7.40;;
17347;SDS011;8791;50.876;4.342;2023-04-03T07:53:46;12.73;;;7.23;;
17347;SDS011;8791;50.876;4.342;2023-04-03T07:56:13;15.63;;;7.57;;
17347;SDS011;8791;50.876;4.342;2023-04-03T07:58:40;13.57;;;7.87;;
17347;SDS011;8791;50.876;4.342;2023-04-03T08:01:07;10.97;;;7.43;;
17347;SDS011;8791;50.876;4.342;2023-04-03T08:03:34;13.00;;;7.40;;
17347;SDS011;8791;50.876;4.342;2023-04-03T08:06:02;11.63;;;7.77;;
17347;SDS011;8791;50.876;4.342;2023-04-03T08:08:32;11.03;;;6.80;;
17347;SDS011;8791;50.876;4.342;2023-04-03T08:10:59;13.30;;;7.47;;
17347;SDS011;8791;50.876;4.342;2023-04-03T08:13:27;11.10;;;7.40;;
17347;SDS011;8791;50.876;4.342;2023-04-03T08:15:55;11.67;;;6.90;;
17347;SDS011;8791;50.876;4.342;2023-04-03T08:18:22;9.97;;;7.57;;
17347;SDS011;8791;50.876;4.342;2023-04-03T08:20:51;11.80;;;7.07;;
17347;SDS011;8791;50.876;4.342;2023-04-03T08:23:18;11.43;;;7.47;;
17347;SDS011;8791;50.876;4.342;2023-04-03T08:25:46;11.27;;;6.50;;
17347;SDS011;8791;50.876;4.342;2023-04-03T08:28:13;6.80;;;6.17;;
17347;SDS011;8791;50.876;4.342;2023-04-03T08:30:40;13.53;;;7.90;;
17347;SDS011;8791;50.876;4.342;2023-04-03T08:33:08;10.63;;;7.60;;
17347;SDS011;8791;50.876;4.342;2023-04-03T08:35:37;13.70;;;6.77;;
17347;SDS011;8791;50.876;4.342;2023-04-03T08:38:05;12.13;;;6.90;;
17347;SDS011;8791;50.876;4.342;2023-04-03T08:40:32;12.67;;;6.50;;
17347;SDS011;8791;50.876;4.342;2023-04-03T08:43:03;8.93;;;5.97;;
17347;SDS011;8791;50.876;4.342;2023-04-03T08:45:48;10.57;;;5.90;;
17347;SDS011;8791;50.876;4.342;2023-04-03T08:48:19;11.00;;;6.13;;
17347;SDS011;8791;50.876;4.342;2023-04-03T08:50:48;14.23;;;5.70;;
17347;SDS011;8791;50.876;4.342;2023-04-03T08:53:19;9.43;;;6.23;;
17347;SDS011;8791;50.876;4.342;2023-04-03T08:55:49;11.20;;;6.27;;
17347;SDS011;8791;50.876;4.342;2023-04-03T08:58:18;9.63;;;5.63;;
17347;SDS011;8791;50.876;4.342;2023-04-03T09:00:47;11.33;;;6.03;;
17347;SDS011;8791;50.876;4.342;2023-04-03T09:03:16;11.97;;;5.33;;
17347;SDS011;8791;50.876;4.342;2023-04-03T09:05:46;9.73;;;5.70;;
17347;SDS011;8791;50.876;4.342;2023-04-03T09:08:21;5.47;;;4.53;;
17347;SDS011;8791;50.876;4.342;2023-04-03T09:10:51;10.73;;;4.93;;
17347;SDS011;8791;50.876;4.342;2023-04-03T09:13:29;6.77;;;4.80;;
17347;SDS011;8791;50.876;4.342;2023-04-03T09:16:03;8.57;;;4.63;;
17347;SDS011;8791;50.876;4.342;2023-04-03T09:18:43;7.00;;;4.23;;
17347;SDS011;8791;50.876;4.342;2023-04-03T09:21:15;10.07;;;4.40;;
17347;SDS011;8791;50.876;4.342;2023-04-03T09:23:47;6.57;;;3.73;;
17347;SDS011;8791;50.876;4.342;2023-04-03T09:26:18;9.17;;;4.27;;
17347;SDS011;8791;50.876;4.342;2023-04-03T09:28:51;7.13;;;3.20;;
17347;SDS011;8791;50.876;4.342;2023-04-03T09:31:21;6.20;;;3.30;;
17347;SDS011;8791;50.876;4.342;2023-04-03T09:33:50;14.27;;;3.87;;
17347;SDS011;8791;50.876;4.342;2023-04-03T09:39:15;10.80;;;4.33;;
17347;SDS011;8791;50.876;4.342;2023-04-03T09:41:54;9.27;;;3.37;;
17347;SDS011;8791;50.876;4.342;2023-04-03T09:44:25;7.30;;;3.30;;
17347;SDS011;8791;50.876;4.342;2023-04-03T09:46:53;6.93;;;2.63;;
17347;SDS011;8791;50.876;4.342;2023-04-03T09:49:20;8.37;;;3.40;;
17347;SDS011;8791;50.876;4.342;2023-04-03T09:51:47;5.33;;;3.20;;
17347;SDS011;8791;50.876;4.342;2023-04-03T09:54:24;5.90;;;2.70;;
17347;SDS011;8791;50.876;4.342;2023-04-03T09:57:01;3.17;;;2.27;;
17347;SDS011;8791;50.876;4.342;2023-04-03T09:59:33;8.00;;;2.37;;
17347;SDS011;8791;50.876;4.342;2023-04-03T10:02:02;5.27;;;2.37;;
17347;SDS011;8791;50.876;4.342;2023-04-03T10:04:39;6.73;;;2.33;;
17347;SDS011;8791;50.876;4.342;2023-04-03T10:07:26;6.60;;;2.80;;
17347;SDS011;8791;50.876;4.342;2023-04-03T10:09:59;4.73;;;2.63;;
17347;SDS011;8791;50.876;4.342;2023-04-03T10:12:28;8.93;;;2.33;;
17347;SDS011;8791;50.876;4.342;2023-04-03T10:14:57;4.63;;;2.33;;
17347;SDS011;8791;50.876;4.342;2023-04-03T10:20:20;3.77;;;2.50;;
17347;SDS011;8791;50.876;4.342;2023-04-03T10:22:59;6.50;;;2.10;;
17347;SDS011;8791;50.876;4.342;2023-04-03T10:25:31;4.93;;;2.33;;
17347;SDS011;8791;50.876;4.342;2023-04-03T10:28:05;6.00;;;2.27;;
17347;SDS011;8791;50.876;4.342;2023-04-03T10:30:42;4.73;;;2.40;;
17347;SDS011;8791;50.876;4.342;2023-04-03T10:33:20;4.03;;;2.30;;
17347;SDS011;8791;50.876;4.342;2023-04-03T10:35:54;5.97;;;3.03;;
17347;SDS011;8791;50.876;4.342;2023-04-03T10:38:37;2.97;;;2.10;;
17347;SDS011;8791;50.876;4.342;2023-04-03T10:41:10;4.13;;;2.00;;
17347;SDS011;8791;50.876;4.342;2023-04-03T10:43:42;2.73;;;1.70;;
17347;SDS011;8791;50.876;4.342;2023-04-03T10:46:18;4.20;;;2.50;;
17347;SDS011;8791;50.876;4.342;2023-04-03T10:48:55;3.13;;;2.20;;
17347;SDS011;8791;50.876;4.342;2023-04-03T10:51:32;4.53;;;1.87;;
17347;SDS011;8791;50.876;4.342;2023-04-03T10:54:08;3.80;;;2.27;;
17347;SDS011;8791;50.876;4.342;2023-04-03T10:56:39;4.07;;;2.10;;
17347;SDS011;8791;50.876;4.342;2023-04-03T10:59:16;5.83;;;1.87;;
17347;SDS011;8791;50.876;4.342;2023-04-03T11:01:51;3.60;;;2.00;;
17347;SDS011;8791;50.876;4.342;2023-04-03T11:04:21;5.67;;;1.60;;
17347;SDS011;8791;50.876;4.342;2023-04-03T11:06:52;8.20;;;1.77;;
17347;SDS011;8791;50.876;4.342;2023-04-03T11:09:26;5.70;;;2.43;;
17347;SDS011;8791;50.876;4.342;2023-04-03T11:11:55;5.97;;;1.90;;
17347;SDS011;8791;50.876;4.342;2023-04-03T11:14:28;4.87;;;1.67;;
17347;SDS011;8791;50.876;4.342;2023-04-03T11:17:04;5.20;;;1.90;;
17347;SDS011;8791;50.876;4.342;2023-04-03T11:19:39;2.43;;;1.67;;
17347;SDS011;8791;50.876;4.342;2023-04-03T11:22:13;2.87;;;2.03;;
17347;SDS011;8791;50.876;4.342;2023-04-03T11:24:51;6.00;;;2.03;;
17347;SDS011;8791;50.876;4.342;2023-04-03T11:27:24;6.03;;;1.90;;
17347;SDS011;8791;50.876;4.342;2023-04-03T11:29:55;4.50;;;1.80;;
17347;SDS011;8791;50.876;4.342;2023-04-03T11:32:38;3.57;;;1.90;;
17347;SDS011;8791;50.876;4.342;2023-04-03T11:35:23;4.73;;;1.90;;
17347;SDS011;8791;50.876;4.342;2023-04-03T11:37:52;6.13;;;2.17;;
17347;SDS011;8791;50.876;4.342;2023-04-03T11:40:21;5.73;;;2.00;;
17347;SDS011;8791;50.876;4.342;2023-04-03T11:42:52;3.37;;;1.97;;
17347;SDS011;8791;50.876;4.342;2023-04-03T11:45:26;3.57;;;1.73;;
17347;SDS011;8791;50.876;4.342;2023-04-03T11:48:01;4.87;;;1.80;;
17347;SDS011;8791;50.876;4.342;2023-04-03T11:50:39;3.97;;;1.37;;
17347;SDS011;8791;50.876;4.342;2023-04-03T11:55:57;4.90;;;2.20;;
17347;SDS011;8791;50.876;4.342;2023-04-03T11:58:26;3.87;;;2.03;;
17347;SDS011;8791;50.876;4.342;2023-04-03T12:00:58;2.70;;;1.70;;
17347;SDS011;8791;50.876;4.342;2023-04-03T12:12:42;5.73;;;1.53;;
17347;SDS011;8791;50.876;4.342;2023-04-03T12:15:24;2.33;;;1.83;;
17347;SDS011;8791;50.876;4.342;2023-04-03T12:21:19;5.53;;;1.90;;
17347;SDS011;8791;50.876;4.342;2023-04-03T12:23:58;6.10;;;1.70;;
17347;SDS011;8791;50.876;4.342;2023-04-03T12:26:28;5.43;;;1.70;;
17347;SDS011;8791;50.876;4.342;2023-04-03T12:29:02;3.60;;;1.70;;
17347;SDS011;8791;50.876;4.342;2023-04-03T12:31:42;4.00;;;2.23;;
17347;SDS011;8791;50.876;4.342;2023-04-03T12:34:20;4.70;;;1.70;;
17347;SDS011;8791;50.876;4.342;2023-04-03T12:37:02;3.00;;;1.73;;
17347;SDS011;8791;50.876;4.342;2023-04-03T12:39:43;4.57;;;1.57;;
17347;SDS011;8791;50.876;4.342;2023-04-03T12:42:21;2.73;;;1.80;;
17347;SDS011;8791;50.876;4.342;2023-04-03T12:44:59;4.03;;;1.60;;
17347;SDS011;8791;50.876;4.342;2023-04-03T12:47:36;1.90;;;1.20;;
17347;SDS011;8791;50.876;4.342;2023-04-03T12:50:13;3.70;;;1.50;;
17347;SDS011;8791;50.876;4.342;2023-04-03T12:52:47;3.80;;;1.30;;
17347;SDS011;8791;50.876;4.342;2023-04-03T12:55:20;3.47;;;1.30;;
17347;SDS011;8791;50.876;4.342;2023-04-03T12:57:47;5.97;;;2.30;;
17347;SDS011;8791;50.876;4.342;2023-04-03T13:00:21;2.53;;;1.90;;
17347;SDS011;8791;50.876;4.342;2023-04-03T13:02:57;4.37;;;1.30;;
17347;SDS011;8791;50.876;4.342;2023-04-03T13:05:24;5.23;;;1.60;;
17347;SDS011;8791;50.876;4.342;2023-04-03T13:07:54;6.20;;;1.60;;
17347;SDS011;8791;50.876;4.342;2023-04-03T13:10:25;1.67;;;1.50;;
17347;SDS011;8791;50.876;4.342;2023-04-03T13:12:53;4.37;;;1.47;;
17347;SDS011;8791;50.876;4.342;2023-04-03T13:15:21;2.37;;;1.30;;
17347;SDS011;8791;50.876;4.342;2023-04-03T13:17:50;12.73;;;1.67;;
17347;SDS011;8791;50.876;4.342;2023-04-03T13:20:19;1.67;;;1.57;;
17347;SDS011;8791;50.876;4.342;2023-04-03T13:22:51;4.27;;;1.40;;
17347;SDS011;8791;50.876;4.342;2023-04-03T13:25:23;4.47;;;1.67;;
17347;SDS011;8791;50.876;4.342;2023-04-03T13:27:52;2.00;;;1.33;;
17347;SDS011;8791;50.876;4.342;2023-04-03T13:30:20;6.87;;;1.33;;
17347;SDS011;8791;50.876;4.342;2023-04-03T13:32:50;1.73;;;1.23;;
17347;SDS011;8791;50.876;4.342;2023-04-03T13:35:27;10.93;;;2.00;;
17347;SDS011;8791;50.876;4.342;2023-04-03T13:37:59;1.97;;;1.10;;
17347;SDS011;8791;50.876;4.342;2023-04-03T13:40:27;3.53;;;1.30;;
17347;SDS011;8791;50.876;4.342;2023-04-03T13:43:02;3.43;;;1.57;;
17347;SDS011;8791;50.876;4.342;2023-04-03T13:45:32;1.73;;;1.17;;
17347;SDS011;8791;50.876;4.342;2023-04-03T13:48:14;3.70;;;1.40;;
17347;SDS011;8791;50.876;4.342;2023-04-03T13:53:34;4.13;;;1.50;;
17347;SDS011;8791;50.876;4.342;2023-04-03T13:56:13;3.13;;;1.70;;
17347;SDS011;8791;50.876;4.342;2023-04-03T13:58:52;5.20;;;1.60;;
17347;SDS011;8791;50.876;4.342;2023-04-03T14:01:24;4.63;;;2.03;;
17347;SDS011;8791;50.876;4.342;2023-04-03T14:03:59;3.13;;;1.47;;
17347;SDS011;8791;50.876;4.342;2023-04-03T14:06:27;4.00;;;1.30;;
17347;SDS011;8791;50.876;4.342;2023-04-03T14:08:56;2.03;;;1.60;;
17347;SDS011;8791;50.876;4.342;2023-04-03T14:11:24;3.90;;;1.27;;
17347;SDS011;8791;50.876;4.342;2023-04-03T14:13:55;5.53;;;1.87;;
17347;SDS011;8791;50.876;4.342;2023-04-03T14:16:26;2.93;;;1.50;;
17347;SDS011;8791;50.876;4.342;2023-04-03T14:18:55;5.13;;;1.60;;
17347;SDS011;8791;50.876;4.342;2023-04-03T14:21:23;6.60;;;1.60;;
17347;SDS011;8791;50.876;4.342;2023-04-03T14:23:51;4.97;;;1.50;;
17347;SDS011;8791;50.876;4.342;2023-04-03T14:26:19;5.67;;;1.80;;
17347;SDS011;8791;50.876;4.342;2023-04-03T14:28:48;3.63;;;1.77;;
17347;SDS011;8791;50.876;4.342;2023-04-03T14:31:17;4.27;;;1.47;;
17347;SDS011;8791;50.876;4.342;2023-04-03T14:33:45;4.07;;;1.73;;
17347;SDS011;8791;50.876;4.342;2023-04-03T14:36:13;5.67;;;1.60;;
17347;SDS011;8791;50.876;4.342;2023-04-03T14:38:41;9.77;;;1.97;;
17347;SDS011;8791;50.876;4.342;2023-04-03T14:41:10;3.33;;;1.60;;
17347;SDS011;8791;50.876;4.342;2023-04-03T14:43:39;3.27;;;1.40;;
17347;SDS011;8791;50.876;4.342;2023-04-03T14:46:09;5.10;;;2.00;;
17347;SDS011;8791;50.876;4.342;2023-04-03T14:48:40;3.03;;;1.63;;
17347;SDS011;8791;50.876;4.342;2023-04-03T14:51:08;3.27;;;1.57;;
17347;SDS011;8791;50.876;4.342;2023-04-03T14:53:37;5.27;;;1.53;;
17347;SDS011;8791;50.876;4.342;2023-04-03T14:56:10;4.10;;;1.30;;
17347;SDS011;8791;50.876;4.342;2023-04-03T14:58:39;3.73;;;1.73;;
17347;SDS011;8791;50.876;4.342;2023-04-03T15:01:08;3.47;;;1.40;;
17347;SDS011;8791;50.876;4.342;2023-04-03T15:03:36;4.70;;;1.47;;
17347;SDS011;8791;50.876;4.342;2023-04-03T15:06:04;5.10;;;1.40;;
17347;SDS011;8791;50.876;4.342;2023-04-03T15:08:31;4.40;;;1.40;;
17347;SDS011;8791;50.876;4.342;2023-04-03T15:10:57;4.13;;;1.70;;
17347;SDS011;8791;50.876;4.342;2023-04-03T15:13:25;1.77;;;1.30;;
17347;SDS011;8791;50.876;4.342;2023-04-03T15:15:54;1.77;;;1.30;;
17347;SDS011;8791;50.876;4.342;2023-04-03T15:18:21;1.43;;;1.27;;
17347;SDS011;8791;50.876;4.342;2023-04-03T15:20:51;2.17;;;1.40;;
17347;SDS011;8791;50.876;4.342;2023-04-03T15:23:18;2.67;;;1.30;;
17347;SDS011;8791;50.876;4.342;2023-04-03T15:25:46;12.33;;;1.57;;
17347;SDS011;8791;50.876;4.342;2023-04-03T15:28:17;1.93;;;1.53;;
17347;SDS011;8791;50.876;4.342;2023-04-03T15:30:47;2.43;;;1.40;;
17347;SDS011;8791;50.876;4.342;2023-04-03T15:33:15;3.47;;;1.23;;
17347;SDS011;8791;50.876;4.342;2023-04-03T15:35:42;3.10;;;1.20;;